createdAt,value
2022-08-09T00:02:30.557Z,1.90
2022-08-09T00:07:44.424Z,2.40
2022-08-09T00:12:52.319Z,3.70
2022-08-09T00:18:05.969Z,2.80
2022-08-09T00:23:55.014Z,2.60
2022-08-09T00:28:39.869Z,2.40
2022-08-09T00:33:51.206Z,2.10
2022-08-09T00:38:55.304Z,2.90
2022-08-09T00:44:11.856Z,2.80
2022-08-09T00:49:21.887Z,2.90
2022-08-09T00:54:31.433Z,3.00
2022-08-09T00:59:46.369Z,2.70
2022-08-09T01:05:14.329Z,2.50
2022-08-09T01:10:45.276Z,2.20
2022-08-09T01:15:53.025Z,2.80
2022-08-09T01:21:50.915Z,2.60
2022-08-09T01:34:02.546Z,3.00
2022-08-09T01:39:59.431Z,2.90
2022-08-09T01:46:04.155Z,2.60
2022-08-09T01:51:09.036Z,2.70
2022-08-09T01:56:15.044Z,2.80
2022-08-09T02:01:30.435Z,2.70
2022-08-09T02:07:05.110Z,2.80
2022-08-09T02:12:17.934Z,2.70
2022-08-09T02:18:09.683Z,2.10
2022-08-09T02:22:59.895Z,2.70
2022-08-09T02:34:06.480Z,2.90
2022-08-09T02:39:33.668Z,3.60
2022-08-09T02:44:55.846Z,2.20
2022-08-09T02:50:09.913Z,2.70
2022-08-09T02:55:20.802Z,3.20
2022-08-09T03:00:26.495Z,2.80
2022-08-09T03:05:34.602Z,3.20
2022-08-09T03:10:39.897Z,2.40
2022-08-09T03:16:05.993Z,2.90
2022-08-09T03:21:11.917Z,3.30
2022-08-09T03:26:20.855Z,3.30
2022-08-09T03:31:42.340Z,3.50
2022-08-09T03:36:58.149Z,3.20
2022-08-09T03:42:06.242Z,2.30
2022-08-09T03:47:10.550Z,3.40
2022-08-09T03:52:17.306Z,3.50
2022-08-09T03:57:22.478Z,3.50
2022-08-09T04:02:29.573Z,3.10
2022-08-09T04:07:47.726Z,7.80
2022-08-09T04:12:56.138Z,2.70
2022-08-09T04:18:01.189Z,3.30
2022-08-09T04:23:09.794Z,4.50
2022-08-09T04:28:13.342Z,3.70
2022-08-09T04:33:16.568Z,3.50
2022-08-09T04:38:20.477Z,5.50
2022-08-09T04:43:26.079Z,3.20
2022-08-09T04:48:33.536Z,4.60
2022-08-09T04:53:37.069Z,2.90
2022-08-09T04:58:40.798Z,2.80
2022-08-09T05:03:45.261Z,3.50
2022-08-09T05:08:51.633Z,3.10
2022-08-09T05:13:55.228Z,4.50
2022-08-09T05:19:00.820Z,3.40
2022-08-09T05:24:06.859Z,4.30
2022-08-09T05:29:17.464Z,3.50
2022-08-09T05:34:30.222Z,3.40
2022-08-09T05:39:43.302Z,3.80
2022-08-09T05:44:50.408Z,3.30
2022-08-09T05:50:25.255Z,3.50
2022-08-09T05:55:21.680Z,2.80
2022-08-09T06:00:30.309Z,4.20
2022-08-09T06:05:58.216Z,3.40
2022-08-09T06:11:00.152Z,3.60
2022-08-09T06:16:05.263Z,3.10
2022-08-09T06:21:08.890Z,2.60
2022-08-09T06:26:20.218Z,3.60
2022-08-09T06:31:30.577Z,3.20
2022-08-09T06:36:34.622Z,2.80
2022-08-09T06:42:07.787Z,3.60
2022-08-09T06:47:03.128Z,2.80
2022-08-09T06:52:06.438Z,2.90
2022-08-09T06:57:14.567Z,3.00
2022-08-09T07:02:18.972Z,3.10
2022-08-09T07:08:00.650Z,3.10
2022-08-09T07:12:57.739Z,3.50
2022-08-09T07:18:02.556Z,2.90
2022-08-09T07:23:19.133Z,3.40
2022-08-09T07:28:28.304Z,2.70
2022-08-09T07:33:53.157Z,2.50
2022-08-09T07:39:00.827Z,2.80
2022-08-09T07:44:06.696Z,2.90
2022-08-09T07:49:15.421Z,3.30
2022-08-09T07:54:27.862Z,6.70
2022-08-09T07:59:46.010Z,3.60
2022-08-09T08:04:54.749Z,2.40
2022-08-09T08:10:07.970Z,2.60
2022-08-09T08:15:23.048Z,3.20
2022-08-09T08:20:33.104Z,2.70
2022-08-09T08:25:44.817Z,2.70
2022-08-09T08:30:50.214Z,2.60
2022-08-09T08:35:59.181Z,2.60
2022-08-09T08:41:06.228Z,3.00
2022-08-09T08:46:32.626Z,2.20
2022-08-09T08:52:00.433Z,2.40
2022-08-09T08:57:04.728Z,2.80
2022-08-09T09:02:31.304Z,2.20
2022-08-09T09:07:36.788Z,2.10
2022-08-09T09:12:41.330Z,2.10
2022-08-09T09:17:51.662Z,2.10
2022-08-09T09:23:01.974Z,2.60
2022-08-09T09:28:10.769Z,2.50
2022-08-09T09:33:17.438Z,2.40
2022-08-09T09:38:39.413Z,2.30
2022-08-09T09:44:10.615Z,2.10
2022-08-09T09:49:12.751Z,2.30
2022-08-09T09:54:21.062Z,2.20
2022-08-09T09:59:35.800Z,2.50
2022-08-09T10:04:40.382Z,2.20
2022-08-09T10:09:54.893Z,2.30
2022-08-09T10:15:17.709Z,2.10
2022-08-09T10:20:44.770Z,2.40
2022-08-09T10:26:08.021Z,2.40
2022-08-09T10:36:42.060Z,2.20
2022-08-09T10:41:47.669Z,2.30
2022-08-09T10:48:14.248Z,2.10
2022-08-09T10:53:04.800Z,2.20
2022-08-09T10:58:37.433Z,2.40
2022-08-09T11:04:27.709Z,2.00
2022-08-09T11:09:47.351Z,1.90
2022-08-09T11:15:03.004Z,2.50
2022-08-09T11:20:22.520Z,2.50
2022-08-09T11:25:44.872Z,2.20
2022-08-09T11:30:51.466Z,2.20
2022-08-09T11:36:01.287Z,2.30
2022-08-09T11:41:37.973Z,1.90
2022-08-09T11:46:57.492Z,2.10
2022-08-09T11:53:03.411Z,2.20
2022-08-09T11:58:00.823Z,2.00
2022-08-09T12:03:54.877Z,1.90
2022-08-09T12:08:50.815Z,2.00
2022-08-09T12:14:07.263Z,2.00
2022-08-09T12:19:14.315Z,2.40
2022-08-09T12:24:24.965Z,2.10
2022-08-09T12:29:43.607Z,2.10
2022-08-09T12:35:04.575Z,1.70
2022-08-09T12:40:12.052Z,2.00
2022-08-09T12:45:34.673Z,2.00
2022-08-09T12:50:41.295Z,2.00
2022-08-09T12:56:14.459Z,1.40
2022-08-09T13:01:49.120Z,1.90
2022-08-09T13:06:54.168Z,1.60
2022-08-09T13:12:05.071Z,1.60
2022-08-09T13:17:25.671Z,1.50
2022-08-09T13:23:01.604Z,1.50
2022-08-09T13:28:18.996Z,1.50
2022-08-09T13:33:52.676Z,1.80
2022-08-09T13:38:55.781Z,1.70
2022-08-09T13:44:05.502Z,1.60
2022-08-09T13:49:18.468Z,1.90
2022-08-09T13:54:22.005Z,1.60
2022-08-09T13:59:41.824Z,1.20
2022-08-09T14:04:59.380Z,1.80
2022-08-09T14:10:04.647Z,1.30
2022-08-09T14:16:06.298Z,1.50
2022-08-09T14:20:33.558Z,1.40
2022-08-09T14:25:42.824Z,1.60
2022-08-09T14:30:46.320Z,1.90
2022-08-09T14:35:52.982Z,1.60
2022-08-09T14:41:04.530Z,1.80
2022-08-09T14:46:54.022Z,1.60
2022-08-09T14:51:44.313Z,1.40
2022-08-09T14:56:58.224Z,1.30
2022-08-09T15:02:02.571Z,1.50
2022-08-09T15:07:05.946Z,1.50
2022-08-09T15:12:13.525Z,1.40
2022-08-09T15:17:16.755Z,1.50
2022-08-09T15:22:22.030Z,1.30
2022-08-09T15:27:29.300Z,1.20
2022-08-09T15:32:51.346Z,1.40
2022-08-09T15:38:11.125Z,1.30
2022-08-09T15:43:15.300Z,1.50
2022-08-09T15:48:28.714Z,4.90
2022-08-09T15:54:04.758Z,1.90
2022-08-09T15:58:58.526Z,1.40
2022-08-09T16:04:01.798Z,1.20
2022-08-09T16:09:06.775Z,1.40
2022-08-09T16:14:10.058Z,1.90
2022-08-09T16:19:18.120Z,1.30
2022-08-09T16:24:32.879Z,1.60
2022-08-09T16:29:49.885Z,1.60
2022-08-09T16:34:57.039Z,2.10
2022-08-09T16:40:04.762Z,1.50
2022-08-09T16:45:10.509Z,1.90
2022-08-09T16:50:29.056Z,1.50
2022-08-09T16:55:58.290Z,1.80
2022-08-09T17:00:57.769Z,1.80
2022-08-09T17:06:06.739Z,1.70
2022-08-09T17:11:13.311Z,2.10
2022-08-09T17:16:18.772Z,1.80
2022-08-09T17:21:22.238Z,2.00
2022-08-09T17:26:31.524Z,1.60
2022-08-09T17:31:40.318Z,2.30
2022-08-09T17:36:48.870Z,1.60
2022-08-09T17:41:57.045Z,1.60
2022-08-09T17:47:05.164Z,2.60
2022-08-09T17:52:20.669Z,1.70
2022-08-09T17:58:02.472Z,1.80
2022-08-09T18:02:50.361Z,1.80
2022-08-09T18:08:04.590Z,1.90
2022-08-09T18:13:39.644Z,2.40
2022-08-09T18:18:43.139Z,2.10
2022-08-09T18:24:12.672Z,2.10
2022-08-09T18:30:38.840Z,2.00
2022-08-09T18:34:41.941Z,2.30
2022-08-09T18:39:48.548Z,2.10
2022-08-09T18:44:52.072Z,2.10
2022-08-09T18:50:02.959Z,2.00
2022-08-09T18:55:13.838Z,1.90
2022-08-09T19:00:20.170Z,2.10
2022-08-09T19:05:28.705Z,2.70
2022-08-09T19:10:48.325Z,4.70
2022-08-09T19:15:56.404Z,1.70
2022-08-09T19:21:00.926Z,1.60
2022-08-09T19:26:06.142Z,2.70
2022-08-09T19:31:10.319Z,3.00
2022-08-09T19:36:13.681Z,3.20
2022-08-09T19:41:32.620Z,3.80
2022-08-09T19:46:50.339Z,4.10
2022-08-09T19:51:57.292Z,2.90
2022-08-09T19:57:01.296Z,2.60
2022-08-09T20:03:24.099Z,2.40
2022-08-09T20:07:56.992Z,2.50
2022-08-09T20:12:53.084Z,4.00
2022-08-09T20:17:59.644Z,3.90
2022-08-09T20:23:03.193Z,4.10
2022-08-09T20:28:06.773Z,4.00
2022-08-09T20:33:10.828Z,4.80
2022-08-09T20:38:20.966Z,4.20
2022-08-09T20:43:30.736Z,3.70
2022-08-09T20:48:38.480Z,4.10
2022-08-09T20:53:42.317Z,3.50
2022-08-09T20:58:47.010Z,6.00
2022-08-09T21:04:08.240Z,5.40
2022-08-09T21:09:24.982Z,4.80
2022-08-09T21:14:40.678Z,4.20
2022-08-09T21:20:18.877Z,3.90
2022-08-09T21:25:37.606Z,3.90
2022-08-09T21:30:42.434Z,5.10
2022-08-09T21:35:51.112Z,5.30
2022-08-09T21:40:54.886Z,4.70
2022-08-09T21:45:59.390Z,4.00
2022-08-09T21:51:13.276Z,4.00
2022-08-09T21:56:33.909Z,4.20
2022-08-09T22:02:00.541Z,3.80
2022-08-09T22:07:05.848Z,3.20
2022-08-09T22:12:18.339Z,3.80
2022-08-09T22:17:22.364Z,3.00
2022-08-09T22:22:26.127Z,3.00
2022-08-09T22:27:29.289Z,2.70
2022-08-09T22:32:34.238Z,3.60
2022-08-09T22:37:40.458Z,2.90
2022-08-09T22:42:45.265Z,3.10
2022-08-09T22:48:34.362Z,7.10
2022-08-09T22:53:11.881Z,3.90
2022-08-09T22:58:30.913Z,4.00
2022-08-09T23:04:03.865Z,4.00
2022-08-09T23:09:00.292Z,2.90
2022-08-09T23:14:04.233Z,2.40
2022-08-09T23:19:13.875Z,2.60
2022-08-09T23:24:17.082Z,3.60
2022-08-09T23:29:20.396Z,3.30
2022-08-09T23:34:23.703Z,2.90
2022-08-09T23:39:26.992Z,2.90
2022-08-09T23:44:30.530Z,2.90
2022-08-09T23:49:33.847Z,2.50
2022-08-09T23:54:37.089Z,2.30
2022-08-09T23:59:59.243Z,2.70
